Time;durP1;ratioP1;P1;durP2;ratioP2;P2;SDS_P1;SDS_P2;PMS_P1;PMS_P2;Temp;Humidity;BMP_temperature;BMP_pressure;BME280_temperature;BME280_humidity;BME280_pressure;Samples;Min_cycle;Max_cycle;Signal;HPM_P1;HPM_P2
2024/01/02 00:00:21;;;;;;;14.73;3.47;;;5.50;99.90;;;;;;4957704;28;20216;-86
2024/01/02 00:02:47;;;;;;;8.88;2.97;;;5.50;99.90;;;;;;4957172;28;20192;-87
2024/01/02 00:05:13;;;;;;;18.50;4.07;;;5.50;99.90;;;;;;4957374;28;20193;-87
2024/01/02 00:07:42;;;;;;;12.73;3.58;;;5.50;99.90;;;;;;4958184;28;20185;-87
2024/01/02 00:10:08;;;;;;;12.10;3.30;;;5.50;99.90;;;;;;4957228;28;20191;-86
2024/01/02 00:12:33;;;;;;;12.77;2.97;;;5.50;99.90;;;;;;4958063;28;20275;-88
2024/01/02 00:15:00;;;;;;;9.38;2.92;;;5.50;99.90;;;;;;4960132;28;20211;-86
2024/01/02 00:17:26;;;;;;;11.63;3.17;;;5.50;99.90;;;;;;4961152;28;20181;-86
2024/01/02 00:19:59;;;;;;;19.63;3.35;;;5.50;99.90;;;;;;4957558;28;20312;-86
2024/01/02 00:22:55;;;;;;;7.80;2.80;;;5.40;99.90;;;;;;4957643;29;20240;-85
2024/01/02 00:25:39;;;;;;;12.93;3.50;;;5.40;99.90;;;;;;4957898;29;20185;-86
2024/01/02 00:28:18;;;;;;;14.38;3.40;;;5.40;99.90;;;;;;4957760;28;20259;-87
2024/01/02 00:30:46;;;;;;;10.63;2.97;;;5.40;99.90;;;;;;4957939;29;20205;-86
2024/01/02 00:33:25;;;;;;;11.07;3.40;;;5.40;99.90;;;;;;4957808;29;20185;-87
2024/01/02 00:35:50;;;;;;;11.88;3.25;;;5.30;99.90;;;;;;4958325;29;20232;-86
2024/01/02 00:38:48;;;;;;;6.80;2.63;;;5.40;99.90;;;;;;4957797;28;20217;-86
2024/01/02 00:41:13;;;;;;;6.03;2.90;;;5.40;99.90;;;;;;4958053;29;20257;-88
2024/01/02 00:43:39;;;;;;;10.43;2.95;;;5.40;99.90;;;;;;4957660;29;20656;-87
2024/01/02 00:46:05;;;;;;;8.10;2.47;;;5.30;99.90;;;;;;4958800;29;20208;-86
2024/01/02 00:48:32;;;;;;;9.55;2.90;;;5.30;99.90;;;;;;4957029;28;20260;-86
2024/01/02 00:51:00;;;;;;;9.75;2.63;;;5.30;99.90;;;;;;4958286;29;20178;-86
2024/01/02 00:53:26;;;;;;;11.70;2.97;;;5.40;99.90;;;;;;4957987;29;20196;-86
2024/01/02 00:56:05;;;;;;;10.75;2.85;;;5.30;99.90;;;;;;4957280;29;20201;-86
2024/01/02 00:58:31;;;;;;;10.70;2.93;;;5.30;99.90;;;;;;4957282;28;20208;-88
2024/01/02 01:00:56;;;;;;;7.23;2.70;;;5.40;99.90;;;;;;4957137;29;20194;-87
2024/01/02 01:03:22;;;;;;;7.27;2.73;;;5.40;99.90;;;;;;4957381;29;20241;-86
2024/01/02 01:05:48;;;;;;;10.15;2.97;;;5.30;99.90;;;;;;4957009;29;20222;-87
2024/01/02 01:08:14;;;;;;;9.07;2.53;;;5.30;99.90;;;;;;4957169;28;20288;-87
2024/01/02 01:10:39;;;;;;;10.68;3.25;;;5.30;99.90;;;;;;4956684;29;20186;-88
2024/01/02 01:13:05;;;;;;;10.07;2.70;;;5.40;99.90;;;;;;4957053;29;20194;-86
2024/01/02 01:15:31;;;;;;;6.50;2.73;;;5.40;99.90;;;;;;4956508;29;20245;-87
2024/01/02 01:17:56;;;;;;;9.65;2.83;;;5.40;99.90;;;;;;4956533;28;20193;-87
2024/01/02 01:20:22;;;;;;;11.98;2.70;;;5.40;99.90;;;;;;4956638;29;20237;-87
2024/01/02 01:22:48;;;;;;;10.70;2.93;;;5.40;99.90;;;;;;4956957;29;20181;-87
2024/01/02 01:25:23;;;;;;;8.60;2.63;;;5.40;99.90;;;;;;4955437;28;20186;-88
2024/01/02 01:27:49;;;;;;;9.32;2.55;;;5.40;99.90;;;;;;4956451;28;20177;-88
2024/01/02 01:30:15;;;;;;;5.97;2.33;;;5.40;99.90;;;;;;4956309;29;20194;-88
2024/01/02 01:32:42;;;;;;;11.80;2.63;;;5.40;99.90;;;;;;4957827;29;20213;-86
2024/01/02 01:35:08;;;;;;;8.20;2.78;;;5.50;99.90;;;;;;4956141;29;20206;-87
2024/01/02 01:37:33;;;;;;;9.13;2.65;;;5.40;99.90;;;;;;4956221;29;20182;-87
2024/01/02 01:40:00;;;;;;;10.70;2.75;;;5.40;99.90;;;;;;4956022;28;20236;-87
2024/01/02 01:42:25;;;;;;;11.27;3.03;;;5.40;99.90;;;;;;4956126;28;20261;-87
2024/01/02 01:44:51;;;;;;;12.13;2.88;;;5.40;99.90;;;;;;4956370;29;20225;-87
2024/01/02 01:47:17;;;;;;;10.75;2.63;;;5.40;99.90;;;;;;4956302;28;20185;-87
2024/01/02 01:49:43;;;;;;;11.18;2.35;;;5.40;99.90;;;;;;4955873;28;20205;-86
2024/01/02 01:52:10;;;;;;;9.60;2.55;;;5.50;99.90;;;;;;4956698;28;20545;-87
2024/01/02 01:54:35;;;;;;;11.43;2.65;;;5.50;99.90;;;;;;4956099;28;20185;-87
2024/01/02 01:57:02;;;;;;;8.18;2.60;;;5.50;99.90;;;;;;4957192;28;20213;-87
2024/01/02 01:59:28;;;;;;;6.72;2.13;;;5.60;99.90;;;;;;4955811;28;20198;-87
2024/01/02 02:18:56;;;;;;;6.63;2.20;;;5.40;99.90;;;;;;6006530;23;20259;-86
2024/01/02 02:21:21;;;;;;;12.68;2.47;;;5.40;99.90;;;;;;4864774;29;20188;-86
2024/01/02 02:23:47;;;;;;;7.63;2.40;;;5.40;99.90;;;;;;4864224;29;20180;-86
2024/01/02 02:26:13;;;;;;;7.75;2.33;;;5.40;99.90;;;;;;4864236;29;20192;-87
2024/01/02 02:28:38;;;;;;;9.23;2.35;;;5.40;99.90;;;;;;4864421;29;20205;-87
2024/01/02 02:31:04;;;;;;;9.13;2.27;;;5.40;99.90;;;;;;4865091;29;20195;-87
2024/01/02 02:33:30;;;;;;;9.80;2.10;;;5.40;99.90;;;;;;4864313;29;20214;-86
2024/01/02 02:35:55;;;;;;;6.22;2.10;;;5.40;99.90;;;;;;4864159;29;20215;-87
2024/01/02 02:38:21;;;;;;;6.67;2.40;;;5.50;99.90;;;;;;4863740;29;20180;-87
2024/01/02 02:40:46;;;;;;;8.38;2.60;;;5.40;99.90;;;;;;4864071;29;20201;-87
2024/01/02 02:43:12;;;;;;;5.30;2.47;;;5.40;99.90;;;;;;4863856;29;20275;-87
2024/01/02 02:45:38;;;;;;;8.07;2.55;;;5.50;99.90;;;;;;4864212;29;20270;-87
2024/01/02 02:48:04;;;;;;;8.02;2.00;;;5.40;99.90;;;;;;4863676;29;20204;-86
2024/01/02 02:50:29;;;;;;;8.32;2.55;;;5.50;99.90;;;;;;4863663;29;20677;-87
2024/01/02 02:52:55;;;;;;;11.15;2.72;;;5.50;99.90;;;;;;4864171;29;20271;-87
2024/01/02 02:55:20;;;;;;;11.32;2.85;;;5.50;99.90;;;;;;4863772;29;20204;-87
2024/01/02 02:57:46;;;;;;;11.23;2.20;;;5.50;99.90;;;;;;4863409;29;20188;-87
2024/01/02 03:00:12;;;;;;;4.68;1.98;;;5.50;99.90;;;;;;4863371;29;20197;-87
2024/01/02 03:02:38;;;;;;;8.93;2.37;;;5.50;99.90;;;;;;4863672;29;20207;-87
2024/01/02 03:05:04;;;;;;;6.77;2.30;;;5.50;99.90;;;;;;4863402;29;20190;-87
2024/01/02 03:07:30;;;;;;;8.15;2.22;;;5.50;99.90;;;;;;4864225;29;20184;-87
2024/01/02 03:09:56;;;;;;;8.30;2.17;;;5.50;99.90;;;;;;4863725;29;20204;-87
2024/01/02 03:12:22;;;;;;;10.30;2.13;;;5.50;99.90;;;;;;4863954;29;20180;-87
2024/01/02 03:14:47;;;;;;;6.13;2.20;;;5.50;99.90;;;;;;4864112;29;20192;-87
2024/01/02 03:17:13;;;;;;;7.03;1.95;;;5.50;99.90;;;;;;4864065;29;20362;-87
2024/01/02 03:19:38;;;;;;;4.40;2.03;;;5.50;99.90;;;;;;4863514;29;20245;-87
2024/01/02 03:22:04;;;;;;;9.05;2.05;;;5.60;99.90;;;;;;4864058;29;20181;-87
2024/01/02 03:24:30;;;;;;;7.67;2.10;;;5.50;99.90;;;;;;4863577;29;20180;-87
2024/01/02 03:26:56;;;;;;;8.63;2.20;;;5.50;99.90;;;;;;4863600;29;20192;-87
2024/01/02 03:29:21;;;;;;;8.23;2.15;;;5.50;99.90;;;;;;4863366;29;20246;-87
2024/01/02 03:31:47;;;;;;;8.07;2.10;;;5.50;99.90;;;;;;4863821;29;20180;-87
2024/01/02 03:34:13;;;;;;;8.00;2.20;;;5.50;99.90;;;;;;4863249;29;20190;-87
2024/01/02 03:36:38;;;;;;;10.13;2.50;;;5.50;99.90;;;;;;4864306;29;20196;-87
2024/01/02 03:39:05;;;;;;;5.43;1.80;;;5.40;99.90;;;;;;4863970;29;20206;-87
2024/01/02 03:41:30;;;;;;;7.80;2.80;;;5.40;99.90;;;;;;4863811;29;20187;-87
2024/01/02 03:43:56;;;;;;;3.83;1.60;;;5.50;99.90;;;;;;4863464;29;20184;-87
2024/01/02 03:46:22;;;;;;;5.97;2.00;;;5.40;99.90;;;;;;4863490;29;20232;-87
2024/01/02 03:48:47;;;;;;;9.50;2.53;;;5.40;99.90;;;;;;4862619;29;20187;-86
2024/01/02 03:51:13;;;;;;;9.43;2.30;;;5.40;99.90;;;;;;4863675;29;20184;-87
2024/01/02 03:53:39;;;;;;;6.83;1.83;;;5.40;99.90;;;;;;4863688;29;20180;-87
2024/01/02 03:56:05;;;;;;;8.47;2.10;;;5.30;99.90;;;;;;4863603;29;20235;-86
2024/01/02 03:58:30;;;;;;;6.90;1.90;;;5.40;99.90;;;;;;4862933;29;20722;-86
2024/01/02 04:00:56;;;;;;;6.30;1.90;;;5.40;99.90;;;;;;4862996;29;20199;-86
2024/01/02 04:03:23;;;;;;;9.97;5.57;;;5.40;99.90;;;;;;4862809;29;20176;-86
2024/01/02 04:05:49;;;;;;;20.87;11.10;;;5.40;99.90;;;;;;4863087;29;20335;-87
2024/01/02 04:08:14;;;;;;;60.73;31.53;;;5.40;99.90;;;;;;4863135;29;20686;-86
